sensor_id;sensor_type;location;lat;lon;timestamp;P1;durP1;ratioP1;P2;durP2;ratioP2
7997;SDS011;4044;49.814;7.828;2023-08-17T00:02:04;162.30;;;16.10;;
7997;SDS011;4044;49.814;7.828;2023-08-17T00:04:29;107.55;;;13.23;;
7997;SDS011;4044;49.814;7.828;2023-08-17T00:06:55;61.25;;;11.00;;
7997;SDS011;4044;49.814;7.828;2023-08-17T00:09:20;85.05;;;11.90;;
7997;SDS011;4044;49.814;7.828;2023-08-17T00:11:47;116.28;;;13.57;;
7997;SDS011;4044;49.814;7.828;2023-08-17T00:14:12;154.45;;;13.77;;
7997;SDS011;4044;49.814;7.828;2023-08-17T00:16:38;68.20;;;9.63;;
7997;SDS011;4044;49.814;7.828;2023-08-17T00:19:03;83.05;;;10.48;;
7997;SDS011;4044;49.814;7.828;2023-08-17T00:21:29;124.78;;;12.50;;
7997;SDS011;4044;49.814;7.828;2023-08-17T00:23:54;66.38;;;9.25;;
7997;SDS011;4044;49.814;7.828;2023-08-17T00:26:21;61.22;;;10.02;;
7997;SDS011;4044;49.814;7.828;2023-08-17T00:28:46;88.28;;;11.02;;
7997;SDS011;4044;49.814;7.828;2023-08-17T00:31:12;84.50;;;11.73;;
7997;SDS011;4044;49.814;7.828;2023-08-17T00:33:37;80.50;;;13.07;;
7997;SDS011;4044;49.814;7.828;2023-08-17T00:36:03;141.27;;;13.02;;
7997;SDS011;4044;49.814;7.828;2023-08-17T00:38:29;104.32;;;14.13;;
7997;SDS011;4044;49.814;7.828;2023-08-17T00:40:54;77.03;;;12.45;;
7997;SDS011;4044;49.814;7.828;2023-08-17T00:43:20;93.05;;;13.48;;
7997;SDS011;4044;49.814;7.828;2023-08-17T00:45:46;32.85;;;9.18;;
7997;SDS011;4044;49.814;7.828;2023-08-17T00:48:12;26.23;;;9.15;;
7997;SDS011;4044;49.814;7.828;2023-08-17T00:50:38;30.23;;;11.52;;
7997;SDS011;4044;49.814;7.828;2023-08-17T00:53:05;21.52;;;9.93;;
7997;SDS011;4044;49.814;7.828;2023-08-17T00:55:32;23.75;;;9.80;;
7997;SDS011;4044;49.814;7.828;2023-08-17T00:57:58;33.08;;;11.98;;
7997;SDS011;4044;49.814;7.828;2023-08-17T01:00:25;41.50;;;12.95;;
7997;SDS011;4044;49.814;7.828;2023-08-17T01:02:53;40.33;;;12.60;;
7997;SDS011;4044;49.814;7.828;2023-08-17T01:05:20;43.70;;;12.98;;
7997;SDS011;4044;49.814;7.828;2023-08-17T01:07:45;49.80;;;14.23;;
7997;SDS011;4044;49.814;7.828;2023-08-17T01:10:11;46.22;;;13.32;;
7997;SDS011;4044;49.814;7.828;2023-08-17T01:15:24;37.50;;;12.35;;
7997;SDS011;4044;49.814;7.828;2023-08-17T01:18:04;35.83;;;11.93;;
7997;SDS011;4044;49.814;7.828;2023-08-17T01:20:52;33.97;;;12.60;;
7997;SDS011;4044;49.814;7.828;2023-08-17T01:23:18;52.33;;;15.38;;
7997;SDS011;4044;49.814;7.828;2023-08-17T01:25:43;74.13;;;16.45;;
7997;SDS011;4044;49.814;7.828;2023-08-17T01:28:09;89.82;;;16.10;;
7997;SDS011;4044;49.814;7.828;2023-08-17T01:30:38;52.65;;;14.32;;
7997;SDS011;4044;49.814;7.828;2023-08-17T01:33:10;33.28;;;12.50;;
7997;SDS011;4044;49.814;7.828;2023-08-17T01:35:46;42.55;;;13.10;;
7997;SDS011;4044;49.814;7.828;2023-08-17T01:38:19;90.35;;;16.70;;
7997;SDS011;4044;49.814;7.828;2023-08-17T01:40:48;68.47;;;14.27;;
7997;SDS011;4044;49.814;7.828;2023-08-17T01:43:16;53.15;;;15.15;;
7997;SDS011;4044;49.814;7.828;2023-08-17T01:45:42;126.10;;;18.95;;
7997;SDS011;4044;49.814;7.828;2023-08-17T01:48:08;105.78;;;17.88;;
7997;SDS011;4044;49.814;7.828;2023-08-17T01:50:33;90.38;;;15.82;;
7997;SDS011;4044;49.814;7.828;2023-08-17T01:52:59;102.00;;;15.43;;
7997;SDS011;4044;49.814;7.828;2023-08-17T01:55:24;133.93;;;17.70;;
7997;SDS011;4044;49.814;7.828;2023-08-17T01:57:50;44.90;;;11.77;;
7997;SDS011;4044;49.814;7.828;2023-08-17T02:00:16;75.53;;;13.10;;
7997;SDS011;4044;49.814;7.828;2023-08-17T02:02:41;54.10;;;12.55;;
7997;SDS011;4044;49.814;7.828;2023-08-17T02:05:07;78.25;;;12.75;;
7997;SDS011;4044;49.814;7.828;2023-08-17T02:07:33;88.53;;;12.48;;
7997;SDS011;4044;49.814;7.828;2023-08-17T02:09:58;98.03;;;15.43;;
7997;SDS011;4044;49.814;7.828;2023-08-17T02:12:24;90.05;;;13.23;;
7997;SDS011;4044;49.814;7.828;2023-08-17T02:14:49;65.13;;;12.85;;
7997;SDS011;4044;49.814;7.828;2023-08-17T02:17:15;75.72;;;12.80;;
7997;SDS011;4044;49.814;7.828;2023-08-17T02:19:42;103.60;;;13.45;;
7997;SDS011;4044;49.814;7.828;2023-08-17T02:22:08;88.00;;;14.52;;
7997;SDS011;4044;49.814;7.828;2023-08-17T02:24:34;46.85;;;11.85;;
7997;SDS011;4044;49.814;7.828;2023-08-17T02:26:59;63.05;;;12.90;;
7997;SDS011;4044;49.814;7.828;2023-08-17T02:29:25;55.70;;;12.75;;
7997;SDS011;4044;49.814;7.828;2023-08-17T02:31:50;61.45;;;13.98;;
7997;SDS011;4044;49.814;7.828;2023-08-17T02:34:16;46.67;;;13.48;;
7997;SDS011;4044;49.814;7.828;2023-08-17T02:36:41;68.65;;;15.35;;
7997;SDS011;4044;49.814;7.828;2023-08-17T02:39:07;51.30;;;14.30;;
7997;SDS011;4044;49.814;7.828;2023-08-17T02:41:32;36.97;;;12.70;;
7997;SDS011;4044;49.814;7.828;2023-08-17T02:43:58;42.33;;;13.57;;
7997;SDS011;4044;49.814;7.828;2023-08-17T02:46:23;41.60;;;13.95;;
7997;SDS011;4044;49.814;7.828;2023-08-17T02:48:49;40.47;;;13.07;;
7997;SDS011;4044;49.814;7.828;2023-08-17T02:51:15;55.45;;;15.57;;
7997;SDS011;4044;49.814;7.828;2023-08-17T02:53:41;36.50;;;12.18;;
7997;SDS011;4044;49.814;7.828;2023-08-17T02:56:06;34.08;;;12.80;;
7997;SDS011;4044;49.814;7.828;2023-08-17T02:58:34;28.88;;;12.18;;
7997;SDS011;4044;49.814;7.828;2023-08-17T03:01:02;28.98;;;11.32;;
7997;SDS011;4044;49.814;7.828;2023-08-17T03:03:28;27.05;;;11.43;;
7997;SDS011;4044;49.814;7.828;2023-08-17T03:05:54;24.88;;;10.75;;
7997;SDS011;4044;49.814;7.828;2023-08-17T03:08:19;34.08;;;13.05;;
7997;SDS011;4044;49.814;7.828;2023-08-17T03:10:44;28.98;;;12.57;;
7997;SDS011;4044;49.814;7.828;2023-08-17T03:13:10;26.77;;;11.57;;
7997;SDS011;4044;49.814;7.828;2023-08-17T03:15:36;36.58;;;13.95;;
7997;SDS011;4044;49.814;7.828;2023-08-17T03:18:04;32.20;;;12.05;;
7997;SDS011;4044;49.814;7.828;2023-08-17T03:20:30;31.20;;;12.25;;
7997;SDS011;4044;49.814;7.828;2023-08-17T03:22:56;23.70;;;11.15;;
7997;SDS011;4044;49.814;7.828;2023-08-17T03:25:21;23.13;;;10.98;;
7997;SDS011;4044;49.814;7.828;2023-08-17T03:27:47;23.15;;;11.32;;
7997;SDS011;4044;49.814;7.828;2023-08-17T03:30:12;24.75;;;11.27;;
7997;SDS011;4044;49.814;7.828;2023-08-17T03:32:38;25.05;;;10.77;;
7997;SDS011;4044;49.814;7.828;2023-08-17T03:35:03;22.63;;;11.93;;
7997;SDS011;4044;49.814;7.828;2023-08-17T03:37:29;24.88;;;11.95;;
7997;SDS011;4044;49.814;7.828;2023-08-17T03:39:55;24.58;;;11.23;;
7997;SDS011;4044;49.814;7.828;2023-08-17T03:42:20;24.85;;;11.65;;
7997;SDS011;4044;49.814;7.828;2023-08-17T03:44:46;23.70;;;10.95;;
7997;SDS011;4044;49.814;7.828;2023-08-17T03:47:11;23.73;;;11.13;;
7997;SDS011;4044;49.814;7.828;2023-08-17T03:49:37;22.73;;;11.50;;
7997;SDS011;4044;49.814;7.828;2023-08-17T03:52:02;25.20;;;11.48;;
7997;SDS011;4044;49.814;7.828;2023-08-17T03:54:28;21.73;;;10.32;;
7997;SDS011;4044;49.814;7.828;2023-08-17T03:56:53;26.58;;;12.27;;
7997;SDS011;4044;49.814;7.828;2023-08-17T03:59:19;23.48;;;11.15;;
7997;SDS011;4044;49.814;7.828;2023-08-17T04:01:44;22.13;;;11.60;;
7997;SDS011;4044;49.814;7.828;2023-08-17T04:04:10;24.45;;;12.48;;
7997;SDS011;4044;49.814;7.828;2023-08-17T04:06:36;30.15;;;13.07;;
7997;SDS011;4044;49.814;7.828;2023-08-17T04:09:04;24.42;;;12.45;;
7997;SDS011;4044;49.814;7.828;2023-08-17T04:11:29;28.05;;;12.57;;
7997;SDS011;4044;49.814;7.828;2023-08-17T04:13:55;30.30;;;12.32;;
7997;SDS011;4044;49.814;7.828;2023-08-17T04:16:20;30.00;;;12.38;;
7997;SDS011;4044;49.814;7.828;2023-08-17T04:18:46;26.17;;;12.65;;
7997;SDS011;4044;49.814;7.828;2023-08-17T04:21:12;25.10;;;12.43;;
7997;SDS011;4044;49.814;7.828;2023-08-17T04:23:37;22.98;;;11.82;;
7997;SDS011;4044;49.814;7.828;2023-08-17T04:26:03;21.60;;;13.45;;
7997;SDS011;4044;49.814;7.828;2023-08-17T04:28:28;23.23;;;12.68;;
7997;SDS011;4044;49.814;7.828;2023-08-17T04:30:54;21.75;;;12.85;;
7997;SDS011;4044;49.814;7.828;2023-08-17T04:33:19;23.25;;;13.60;;
7997;SDS011;4044;49.814;7.828;2023-08-17T04:35:48;29.33;;;15.45;;
7997;SDS011;4044;49.814;7.828;2023-08-17T04:38:13;24.95;;;13.98;;
7997;SDS011;4044;49.814;7.828;2023-08-17T04:40:39;29.50;;;15.23;;
7997;SDS011;4044;49.814;7.828;2023-08-17T04:43:04;25.08;;;14.45;;
7997;SDS011;4044;49.814;7.828;2023-08-17T04:45:30;23.85;;;13.73;;
7997;SDS011;4044;49.814;7.828;2023-08-17T04:47:55;25.65;;;14.02;;
7997;SDS011;4044;49.814;7.828;2023-08-17T04:50:21;25.75;;;13.95;;
7997;SDS011;4044;49.814;7.828;2023-08-17T04:52:46;19.92;;;13.10;;
7997;SDS011;4044;49.814;7.828;2023-08-17T04:55:12;19.02;;;12.20;;
7997;SDS011;4044;49.814;7.828;2023-08-17T04:57:38;19.98;;;12.18;;
7997;SDS011;4044;49.814;7.828;2023-08-17T05:00:05;17.85;;;12.30;;
7997;SDS011;4044;49.814;7.828;2023-08-17T05:02:35;19.75;;;12.73;;
7997;SDS011;4044;49.814;7.828;2023-08-17T05:05:02;20.23;;;11.85;;
7997;SDS011;4044;49.814;7.828;2023-08-17T05:07:29;21.27;;;12.85;;
7997;SDS011;4044;49.814;7.828;2023-08-17T05:09:55;22.60;;;13.25;;
7997;SDS011;4044;49.814;7.828;2023-08-17T05:12:20;25.48;;;14.32;;
7997;SDS011;4044;49.814;7.828;2023-08-17T05:14:46;21.65;;;13.85;;
7997;SDS011;4044;49.814;7.828;2023-08-17T05:17:11;23.10;;;13.82;;
7997;SDS011;4044;49.814;7.828;2023-08-17T05:19:37;23.08;;;14.68;;
7997;SDS011;4044;49.814;7.828;2023-08-17T05:22:04;20.92;;;13.23;;
7997;SDS011;4044;49.814;7.828;2023-08-17T05:24:33;20.85;;;14.05;;
7997;SDS011;4044;49.814;7.828;2023-08-17T05:26:59;18.63;;;14.48;;
7997;SDS011;4044;49.814;7.828;2023-08-17T05:29:24;16.05;;;12.07;;
7997;SDS011;4044;49.814;7.828;2023-08-17T05:31:51;19.75;;;13.18;;
7997;SDS011;4044;49.814;7.828;2023-08-17T05:34:16;21.33;;;12.55;;
7997;SDS011;4044;49.814;7.828;2023-08-17T05:36:42;20.10;;;13.05;;
7997;SDS011;4044;49.814;7.828;2023-08-17T05:39:07;17.50;;;12.35;;
7997;SDS011;4044;49.814;7.828;2023-08-17T05:41:33;15.95;;;12.45;;
7997;SDS011;4044;49.814;7.828;2023-08-17T05:43:58;22.15;;;13.60;;
7997;SDS011;4044;49.814;7.828;2023-08-17T05:46:24;22.67;;;13.13;;
7997;SDS011;4044;49.814;7.828;2023-08-17T05:48:49;22.48;;;14.95;;
7997;SDS011;4044;49.814;7.828;2023-08-17T05:51:15;24.10;;;13.98;;
7997;SDS011;4044;49.814;7.828;2023-08-17T05:53:40;16.75;;;12.30;;
7997;SDS011;4044;49.814;7.828;2023-08-17T05:56:06;17.75;;;12.85;;
7997;SDS011;4044;49.814;7.828;2023-08-17T05:58:32;20.88;;;13.35;;
7997;SDS011;4044;49.814;7.828;2023-08-17T06:01:07;17.92;;;12.43;;
7997;SDS011;4044;49.814;7.828;2023-08-17T06:03:34;18.25;;;13.10;;
7997;SDS011;4044;49.814;7.828;2023-08-17T06:06:00;16.27;;;11.73;;
7997;SDS011;4044;49.814;7.828;2023-08-17T06:08:26;16.30;;;12.82;;
7997;SDS011;4044;49.814;7.828;2023-08-17T06:10:52;12.18;;;9.80;;
7997;SDS011;4044;49.814;7.828;2023-08-17T06:13:17;10.70;;;9.43;;
7997;SDS011;4044;49.814;7.828;2023-08-17T06:15:43;11.07;;;8.50;;
7997;SDS011;4044;49.814;7.828;2023-08-17T06:18:09;10.73;;;9.07;;
7997;SDS011;4044;49.814;7.828;2023-08-17T06:20:34;10.80;;;8.68;;
7997;SDS011;4044;49.814;7.828;2023-08-17T06:23:00;10.32;;;8.80;;
7997;SDS011;4044;49.814;7.828;2023-08-17T06:25:25;9.90;;;8.20;;
7997;SDS011;4044;49.814;7.828;2023-08-17T06:27:51;10.02;;;8.32;;
7997;SDS011;4044;49.814;7.828;2023-08-17T06:30:17;8.15;;;7.35;;
7997;SDS011;4044;49.814;7.828;2023-08-17T06:32:43;8.35;;;7.22;;
7997;SDS011;4044;49.814;7.828;2023-08-17T06:35:09;8.23;;;7.30;;
7997;SDS011;4044;49.814;7.828;2023-08-17T06:37:35;8.48;;;7.68;;
7997;SDS011;4044;49.814;7.828;2023-08-17T06:40:02;8.10;;;7.30;;
7997;SDS011;4044;49.814;7.828;2023-08-17T06:42:28;7.55;;;6.88;;
7997;SDS011;4044;49.814;7.828;2023-08-17T06:44:53;7.80;;;6.50;;
7997;SDS011;4044;49.814;7.828;2023-08-17T06:47:19;6.90;;;6.20;;
7997;SDS011;4044;49.814;7.828;2023-08-17T06:49:44;7.47;;;5.47;;
7997;SDS011;4044;49.814;7.828;2023-08-17T06:52:10;7.63;;;6.85;;
7997;SDS011;4044;49.814;7.828;2023-08-17T06:54:35;8.23;;;6.88;;
7997;SDS011;4044;49.814;7.828;2023-08-17T06:57:01;7.95;;;7.25;;
7997;SDS011;4044;49.814;7.828;2023-08-17T06:59:26;7.93;;;7.13;;
7997;SDS011;4044;49.814;7.828;2023-08-17T07:01:52;7.03;;;6.35;;
7997;SDS011;4044;49.814;7.828;2023-08-17T07:04:17;7.40;;;6.72;;
7997;SDS011;4044;49.814;7.828;2023-08-17T07:06:43;6.63;;;6.13;;
7997;SDS011;4044;49.814;7.828;2023-08-17T07:09:09;6.90;;;6.03;;
7997;SDS011;4044;49.814;7.828;2023-08-17T07:11:37;9.30;;;7.45;;
7997;SDS011;4044;49.814;7.828;2023-08-17T07:14:03;7.22;;;6.63;;
7997;SDS011;4044;49.814;7.828;2023-08-17T07:16:31;7.57;;;6.80;;
7997;SDS011;4044;49.814;7.828;2023-08-17T07:18:57;6.97;;;6.47;;
7997;SDS011;4044;49.814;7.828;2023-08-17T07:21:22;5.88;;;5.30;;
7997;SDS011;4044;49.814;7.828;2023-08-17T07:23:48;7.45;;;4.88;;
7997;SDS011;4044;49.814;7.828;2023-08-17T07:26:15;4.40;;;3.60;;
7997;SDS011;4044;49.814;7.828;2023-08-17T07:28:43;5.80;;;3.85;;
7997;SDS011;4044;49.814;7.828;2023-08-17T07:31:09;3.50;;;3.13;;
7997;SDS011;4044;49.814;7.828;2023-08-17T07:33:34;4.18;;;3.88;;
7997;SDS011;4044;49.814;7.828;2023-08-17T07:36:00;5.40;;;3.70;;
7997;SDS011;4044;49.814;7.828;2023-08-17T07:38:25;3.33;;;3.03;;
7997;SDS011;4044;49.814;7.828;2023-08-17T07:40:51;2.97;;;2.78;;
7997;SDS011;4044;49.814;7.828;2023-08-17T07:43:16;3.10;;;2.90;;
7997;SDS011;4044;49.814;7.828;2023-08-17T07:45:42;2.88;;;2.75;;
7997;SDS011;4044;49.814;7.828;2023-08-17T07:48:07;3.58;;;3.28;;
7997;SDS011;4044;49.814;7.828;2023-08-17T07:50:33;3.53;;;3.30;;
7997;SDS011;4044;49.814;7.828;2023-08-17T07:52:58;3.47;;;3.08;;
7997;SDS011;4044;49.814;7.828;2023-08-17T07:55:25;3.55;;;3.28;;
7997;SDS011;4044;49.814;7.828;2023-08-17T07:57:51;3.13;;;2.92;;
7997;SDS011;4044;49.814;7.828;2023-08-17T08:00:16;3.30;;;3.10;;
7997;SDS011;4044;49.814;7.828;2023-08-17T08:02:42;3.60;;;3.40;;
7997;SDS011;4044;49.814;7.828;2023-08-17T08:05:08;3.33;;;3.13;;
7997;SDS011;4044;49.814;7.828;2023-08-17T08:07:33;3.15;;;2.95;;
7997;SDS011;4044;49.814;7.828;2023-08-17T08:09:59;3.75;;;2.90;;
7997;SDS011;4044;49.814;7.828;2023-08-17T08:12:24;3.28;;;2.92;;
7997;SDS011;4044;49.814;7.828;2023-08-17T08:14:50;2.97;;;2.78;;
7997;SDS011;4044;49.814;7.828;2023-08-17T08:17:16;2.88;;;2.67;;
7997;SDS011;4044;49.814;7.828;2023-08-17T08:19:41;3.15;;;2.95;;
7997;SDS011;4044;49.814;7.828;2023-08-17T08:22:07;3.15;;;2.90;;
7997;SDS011;4044;49.814;7.828;2023-08-17T08:24:32;4.25;;;3.30;;
7997;SDS011;4044;49.814;7.828;2023-08-17T08:26:59;2.97;;;2.78;;
7997;SDS011;4044;49.814;7.828;2023-08-17T08:29:26;3.33;;;2.60;;
7997;SDS011;4044;49.814;7.828;2023-08-17T08:31:52;6.15;;;2.92;;
7997;SDS011;4044;49.814;7.828;2023-08-17T08:34:18;3.22;;;2.92;;
7997;SDS011;4044;49.814;7.828;2023-08-17T08:36:43;3.20;;;3.00;;
7997;SDS011;4044;49.814;7.828;2023-08-17T08:39:09;3.33;;;2.70;;
7997;SDS011;4044;49.814;7.828;2023-08-17T08:41:35;2.60;;;2.42;;
7997;SDS011;4044;49.814;7.828;2023-08-17T08:44:02;2.70;;;2.60;;
7997;SDS011;4044;49.814;7.828;2023-08-17T08:46:28;3.50;;;2.75;;
7997;SDS011;4044;49.814;7.828;2023-08-17T08:48:56;4.68;;;2.83;;
7997;SDS011;4044;49.814;7.828;2023-08-17T08:51:23;2.47;;;2.38;;
7997;SDS011;4044;49.814;7.828;2023-08-17T08:53:54;2.55;;;2.35;;
7997;SDS011;4044;49.814;7.828;2023-08-17T08:56:32;6.03;;;2.80;;
7997;SDS011;4044;49.814;7.828;2023-08-17T08:59:02;4.07;;;2.40;;
7997;SDS011;4044;49.814;7.828;2023-08-17T09:01:30;3.55;;;2.70;;
7997;SDS011;4044;49.814;7.828;2023-08-17T09:03:58;5.95;;;2.70;;
7997;SDS011;4044;49.814;7.828;2023-08-17T09:06:25;4.03;;;2.33;;
7997;SDS011;4044;49.814;7.828;2023-08-17T09:08:52;2.85;;;2.50;;
7997;SDS011;4044;49.814;7.828;2023-08-17T09:11:18;3.17;;;2.25;;
7997;SDS011;4044;49.814;7.828;2023-08-17T09:13:43;3.17;;;2.90;;
7997;SDS011;4044;49.814;7.828;2023-08-17T09:16:09;3.45;;;2.50;;
7997;SDS011;4044;49.814;7.828;2023-08-17T09:18:34;2.70;;;2.50;;
7997;SDS011;4044;49.814;7.828;2023-08-17T09:21:00;2.45;;;2.33;;
7997;SDS011;4044;49.814;7.828;2023-08-17T09:23:26;2.10;;;2.00;;
7997;SDS011;4044;49.814;7.828;2023-08-17T09:25:52;2.50;;;2.40;;
7997;SDS011;4044;49.814;7.828;2023-08-17T09:28:22;2.40;;;2.20;;
7997;SDS011;4044;49.814;7.828;2023-08-17T09:30:52;2.50;;;2.28;;
7997;SDS011;4044;49.814;7.828;2023-08-17T09:33:22;2.50;;;2.40;;
7997;SDS011;4044;49.814;7.828;2023-08-17T09:35:52;4.22;;;2.20;;
7997;SDS011;4044;49.814;7.828;2023-08-17T09:38:18;4.07;;;2.30;;
7997;SDS011;4044;49.814;7.828;2023-08-17T09:40:45;2.83;;;2.42;;
7997;SDS011;4044;49.814;7.828;2023-08-17T09:43:11;2.70;;;2.50;;
7997;SDS011;4044;49.814;7.828;2023-08-17T09:45:38;3.25;;;2.35;;
7997;SDS011;4044;49.814;7.828;2023-08-17T09:48:05;2.50;;;2.30;;
7997;SDS011;4044;49.814;7.828;2023-08-17T09:50:31;2.42;;;2.30;;
7997;SDS011;4044;49.814;7.828;2023-08-17T09:52:57;2.47;;;2.28;;
7997;SDS011;4044;49.814;7.828;2023-08-17T09:55:22;2.22;;;1.98;;
7997;SDS011;4044;49.814;7.828;2023-08-17T09:57:49;2.30;;;2.20;;
7997;SDS011;4044;49.814;7.828;2023-08-17T10:00:16;1.92;;;1.83;;
7997;SDS011;4044;49.814;7.828;2023-08-17T10:02:44;3.00;;;2.38;;
7997;SDS011;4044;49.814;7.828;2023-08-17T10:05:11;1.83;;;1.75;;
7997;SDS011;4044;49.814;7.828;2023-08-17T10:07:38;2.72;;;2.13;;
7997;SDS011;4044;49.814;7.828;2023-08-17T10:10:08;2.03;;;1.92;;
7997;SDS011;4044;49.814;7.828;2023-08-17T10:12:45;3.08;;;2.00;;
7997;SDS011;4044;49.814;7.828;2023-08-17T10:15:18;2.65;;;1.95;;
7997;SDS011;4044;49.814;7.828;2023-08-17T10:17:49;2.78;;;1.90;;
7997;SDS011;4044;49.814;7.828;2023-08-17T10:20:20;2.15;;;2.00;;
7997;SDS011;4044;49.814;7.828;2023-08-17T10:22:51;2.20;;;2.10;;
7997;SDS011;4044;49.814;7.828;2023-08-17T10:25:24;2.33;;;1.95;;
7997;SDS011;4044;49.814;7.828;2023-08-17T10:27:52;2.10;;;2.00;;
7997;SDS011;4044;49.814;7.828;2023-08-17T10:30:19;2.13;;;1.70;;
7997;SDS011;4044;49.814;7.828;2023-08-17T10:32:44;2.70;;;2.20;;
7997;SDS011;4044;49.814;7.828;2023-08-17T10:35:11;2.65;;;1.92;;
7997;SDS011;4044;49.814;7.828;2023-08-17T10:37:38;2.10;;;1.90;;
7997;SDS011;4044;49.814;7.828;2023-08-17T10:40:04;1.75;;;1.65;;
7997;SDS011;4044;49.814;7.828;2023-08-17T10:42:31;1.88;;;1.77;;
7997;SDS011;4044;49.814;7.828;2023-08-17T10:45:00;1.80;;;1.70;;
7997;SDS011;4044;49.814;7.828;2023-08-17T10:47:29;1.63;;;1.52;;
7997;SDS011;4044;49.814;7.828;2023-08-17T10:50:04;1.80;;;1.70;;
7997;SDS011;4044;49.814;7.828;2023-08-17T10:52:49;2.78;;;1.92;;
7997;SDS011;4044;49.814;7.828;2023-08-17T10:55:15;1.88;;;1.77;;
7997;SDS011;4044;49.814;7.828;2023-08-17T10:57:42;1.95;;;1.65;;
7997;SDS011;4044;49.814;7.828;2023-08-17T11:00:21;3.33;;;1.90;;
7997;SDS011;4044;49.814;7.828;2023-08-17T11:08:01;2.72;;;1.90;;
7997;SDS011;4044;49.814;7.828;2023-08-17T11:10:27;2.20;;;1.88;;
7997;SDS011;4044;49.814;7.828;2023-08-17T11:12:54;1.77;;;1.70;;
7997;SDS011;4044;49.814;7.828;2023-08-17T11:15:24;1.42;;;1.42;;
7997;SDS011;4044;49.814;7.828;2023-08-17T11:17:51;2.50;;;1.45;;
7997;SDS011;4044;49.814;7.828;2023-08-17T11:20:17;1.70;;;1.60;;
7997;SDS011;4044;49.814;7.828;2023-08-17T11:22:43;1.90;;;1.80;;
7997;SDS011;4044;49.814;7.828;2023-08-17T11:25:09;1.90;;;1.70;;
7997;SDS011;4044;49.814;7.828;2023-08-17T11:27:35;4.55;;;1.40;;
7997;SDS011;4044;49.814;7.828;2023-08-17T11:30:01;2.08;;;1.33;;
7997;SDS011;4044;49.814;7.828;2023-08-17T11:32:27;1.73;;;1.63;;
7997;SDS011;4044;49.814;7.828;2023-08-17T11:34:53;2.22;;;1.70;;
7997;SDS011;4044;49.814;7.828;2023-08-17T11:37:19;1.70;;;1.60;;
7997;SDS011;4044;49.814;7.828;2023-08-17T11:39:46;1.70;;;1.60;;
7997;SDS011;4044;49.814;7.828;2023-08-17T11:42:11;2.67;;;1.85;;
7997;SDS011;4044;49.814;7.828;2023-08-17T11:44:37;3.20;;;2.00;;
7997;SDS011;4044;49.814;7.828;2023-08-17T11:47:03;3.05;;;2.28;;
7997;SDS011;4044;49.814;7.828;2023-08-17T11:49:30;2.15;;;1.75;;
7997;SDS011;4044;49.814;7.828;2023-08-17T11:51:56;5.38;;;1.77;;
7997;SDS011;4044;49.814;7.828;2023-08-17T11:54:22;2.20;;;1.80;;
7997;SDS011;4044;49.814;7.828;2023-08-17T11:56:47;1.83;;;1.70;;
7997;SDS011;4044;49.814;7.828;2023-08-17T11:59:13;2.17;;;1.92;;
7997;SDS011;4044;49.814;7.828;2023-08-17T12:01:48;1.73;;;1.70;;
7997;SDS011;4044;49.814;7.828;2023-08-17T12:04:14;2.35;;;2.13;;
7997;SDS011;4044;49.814;7.828;2023-08-17T12:06:42;2.00;;;1.90;;
7997;SDS011;4044;49.814;7.828;2023-08-17T12:09:09;2.45;;;1.80;;
7997;SDS011;4044;49.814;7.828;2023-08-17T12:11:35;1.67;;;1.67;;
7997;SDS011;4044;49.814;7.828;2023-08-17T12:14:07;2.13;;;2.00;;
7997;SDS011;4044;49.814;7.828;2023-08-17T12:16:44;2.70;;;2.00;;
7997;SDS011;4044;49.814;7.828;2023-08-17T12:19:12;5.43;;;2.28;;
7997;SDS011;4044;49.814;7.828;2023-08-17T12:21:37;1.85;;;1.75;;
7997;SDS011;4044;49.814;7.828;2023-08-17T12:24:07;2.10;;;1.90;;
7997;SDS011;4044;49.814;7.828;2023-08-17T12:26:34;2.28;;;2.10;;
7997;SDS011;4044;49.814;7.828;2023-08-17T12:29:00;2.00;;;1.90;;
7997;SDS011;4044;49.814;7.828;2023-08-17T12:31:30;2.33;;;1.90;;
7997;SDS011;4044;49.814;7.828;2023-08-17T12:33:56;2.20;;;2.00;;
7997;SDS011;4044;49.814;7.828;2023-08-17T12:36:22;2.88;;;2.15;;
7997;SDS011;4044;49.814;7.828;2023-08-17T12:38:47;3.45;;;1.90;;
7997;SDS011;4044;49.814;7.828;2023-08-17T12:41:13;2.97;;;1.70;;
7997;SDS011;4044;49.814;7.828;2023-08-17T12:43:38;2.25;;;1.90;;
7997;SDS011;4044;49.814;7.828;2023-08-17T12:46:04;2.75;;;1.85;;
7997;SDS011;4044;49.814;7.828;2023-08-17T12:48:29;2.10;;;1.73;;
7997;SDS011;4044;49.814;7.828;2023-08-17T12:50:55;2.17;;;1.98;;
7997;SDS011;4044;49.814;7.828;2023-08-17T12:53:21;2.38;;;2.17;;
7997;SDS011;4044;49.814;7.828;2023-08-17T12:55:47;2.53;;;1.83;;
7997;SDS011;4044;49.814;7.828;2023-08-17T12:58:12;1.73;;;1.63;;
7997;SDS011;4044;49.814;7.828;2023-08-17T13:00:38;2.33;;;1.67;;
7997;SDS011;4044;49.814;7.828;2023-08-17T13:03:03;1.92;;;1.83;;
7997;SDS011;4044;49.814;7.828;2023-08-17T13:05:29;2.03;;;1.70;;
7997;SDS011;4044;49.814;7.828;2023-08-17T13:07:55;2.15;;;1.60;;
7997;SDS011;4044;49.814;7.828;2023-08-17T13:10:20;2.60;;;1.90;;
7997;SDS011;4044;49.814;7.828;2023-08-17T13:12:46;1.98;;;1.83;;
7997;SDS011;4044;49.814;7.828;2023-08-17T13:15:12;1.98;;;1.70;;
7997;SDS011;4044;49.814;7.828;2023-08-17T13:17:38;2.05;;;1.95;;
7997;SDS011;4044;49.814;7.828;2023-08-17T13:20:04;1.90;;;1.80;;
7997;SDS011;4044;49.814;7.828;2023-08-17T13:22:31;1.83;;;1.80;;
7997;SDS011;4044;49.814;7.828;2023-08-17T13:24:57;2.63;;;1.85;;
7997;SDS011;4044;49.814;7.828;2023-08-17T13:27:22;2.28;;;1.80;;
7997;SDS011;4044;49.814;7.828;2023-08-17T13:29:48;2.20;;;1.80;;
7997;SDS011;4044;49.814;7.828;2023-08-17T13:32:13;4.60;;;1.90;;
7997;SDS011;4044;49.814;7.828;2023-08-17T13:34:39;1.77;;;1.77;;
7997;SDS011;4044;49.814;7.828;2023-08-17T13:37:05;2.40;;;1.80;;
7997;SDS011;4044;49.814;7.828;2023-08-17T13:39:30;2.15;;;1.90;;
7997;SDS011;4044;49.814;7.828;2023-08-17T13:41:57;2.10;;;1.90;;
7997;SDS011;4044;49.814;7.828;2023-08-17T13:44:23;2.15;;;1.70;;
7997;SDS011;4044;49.814;7.828;2023-08-17T13:46:48;3.13;;;1.83;;
7997;SDS011;4044;49.814;7.828;2023-08-17T13:49:14;4.20;;;2.00;;
7997;SDS011;4044;49.814;7.828;2023-08-17T13:51:39;2.20;;;2.10;;
7997;SDS011;4044;49.814;7.828;2023-08-17T13:54:05;1.90;;;1.80;;
7997;SDS011;4044;49.814;7.828;2023-08-17T13:56:30;2.53;;;1.90;;
7997;SDS011;4044;49.814;7.828;2023-08-17T13:58:56;4.95;;;2.10;;
7997;SDS011;4044;49.814;7.828;2023-08-17T14:01:21;5.18;;;2.40;;
7997;SDS011;4044;49.814;7.828;2023-08-17T14:03:47;4.90;;;2.10;;
7997;SDS011;4044;49.814;7.828;2023-08-17T14:06:12;2.25;;;2.15;;
7997;SDS011;4044;49.814;7.828;2023-08-17T14:08:38;3.10;;;2.28;;
7997;SDS011;4044;49.814;7.828;2023-08-17T14:11:03;2.15;;;1.98;;
7997;SDS011;4044;49.814;7.828;2023-08-17T14:13:30;2.00;;;1.90;;
7997;SDS011;4044;49.814;7.828;2023-08-17T14:15:55;1.88;;;1.77;;
7997;SDS011;4044;49.814;7.828;2023-08-17T14:18:23;3.08;;;2.25;;
7997;SDS011;4044;49.814;7.828;2023-08-17T14:20:48;3.42;;;2.30;;
7997;SDS011;4044;49.814;7.828;2023-08-17T14:23:14;2.95;;;2.30;;
7997;SDS011;4044;49.814;7.828;2023-08-17T14:25:39;2.40;;;2.28;;
7997;SDS011;4044;49.814;7.828;2023-08-17T14:28:05;2.70;;;2.45;;
7997;SDS011;4044;49.814;7.828;2023-08-17T14:30:32;3.78;;;2.30;;
7997;SDS011;4044;49.814;7.828;2023-08-17T14:32:58;2.40;;;2.20;;
7997;SDS011;4044;49.814;7.828;2023-08-17T14:35:23;2.15;;;2.05;;
7997;SDS011;4044;49.814;7.828;2023-08-17T14:37:49;2.55;;;2.10;;
7997;SDS011;4044;49.814;7.828;2023-08-17T14:40:14;2.42;;;2.00;;
7997;SDS011;4044;49.814;7.828;2023-08-17T14:42:42;2.40;;;2.30;;
7997;SDS011;4044;49.814;7.828;2023-08-17T14:45:07;1.92;;;1.83;;
7997;SDS011;4044;49.814;7.828;2023-08-17T14:47:33;3.88;;;1.90;;
7997;SDS011;4044;49.814;7.828;2023-08-17T14:49:59;2.80;;;2.03;;
7997;SDS011;4044;49.814;7.828;2023-08-17T14:52:24;2.13;;;2.03;;
7997;SDS011;4044;49.814;7.828;2023-08-17T14:54:51;2.22;;;2.10;;
7997;SDS011;4044;49.814;7.828;2023-08-17T14:57:16;2.53;;;2.00;;
7997;SDS011;4044;49.814;7.828;2023-08-17T14:59:42;2.40;;;2.17;;
7997;SDS011;4044;49.814;7.828;2023-08-17T15:02:07;2.40;;;2.20;;
7997;SDS011;4044;49.814;7.828;2023-08-17T15:04:35;2.53;;;2.20;;
7997;SDS011;4044;49.814;7.828;2023-08-17T15:07:02;2.00;;;1.95;;